Time;durP1;ratioP1;P1;durP2;ratioP2;P2;SDS_P1;SDS_P2;PMS_P1;PMS_P2;Temp;Humidity;BMP_temperature;BMP_pressure;BME280_temperature;BME280_humidity;BME280_pressure;Samples;Min_cycle;Max_cycle;Signal;HPM_P1;HPM_P2
2022/09/05 00:01:15;;;;;;;7.35;3.90;;;;;;;21.08;61.53;100239.47;5051598;28;20398;-44
2022/09/05 00:03:56;;;;;;;5.35;4.00;;;;;;;20.48;63.22;100236.00;5051791;28;20397;-44
2022/09/05 00:06:27;;;;;;;5.40;3.85;;;;;;;20.73;62.97;100239.19;5050890;28;20027;-44
2022/09/05 00:08:59;;;;;;;5.18;3.85;;;;;;;20.65;62.92;100246.72;5051928;28;20112;-44
2022/09/05 00:11:35;;;;;;;7.25;3.80;;;;;;;20.41;64.27;100250.78;5051799;28;20082;-44
2022/09/05 00:14:39;;;;;;;6.93;4.03;;;;;;;20.86;62.65;100263.09;5051281;28;20024;-43
2022/09/05 00:17:28;;;;;;;6.00;3.85;;;;;;;20.54;63.32;100263.88;5029792;28;20463;-45
2022/09/05 00:20:06;;;;;;;7.90;3.90;;;;;;;20.58;63.81;100269.59;5051131;28;20064;-45
2022/09/05 00:23:09;;;;;;;5.88;3.90;;;;;;;20.56;63.54;100271.75;5051283;28;20024;-44
2022/09/05 00:25:56;;;;;;;4.47;3.55;;;;;;;20.79;62.85;100274.16;5044471;28;20449;-44
2022/09/05 00:28:39;;;;;;;4.80;3.65;;;;;;;20.87;63.01;100275.56;5051487;28;20017;-44
2022/09/05 00:31:17;;;;;;;5.50;3.70;;;;;;;20.60;63.57;100268.31;5051366;28;20044;-45
2022/09/05 00:34:02;;;;;;;4.82;3.85;;;;;;;20.75;64.02;100275.72;5051452;28;20047;-47
2022/09/05 00:36:34;;;;;;;4.95;4.00;;;;;;;20.48;64.55;100273.84;5050981;28;20021;-43
2022/09/05 00:39:06;;;;;;;5.38;4.10;;;;;;;20.02;66.28;100269.88;5051122;28;20043;-43
2022/09/05 00:41:32;;;;;;;7.55;4.00;;;;;;;20.01;66.91;100269.06;5050884;28;20021;-45
2022/09/05 00:44:00;;;;;;;6.13;3.85;;;;;;;20.10;66.72;100264.00;5051149;28;20032;-44
2022/09/05 00:46:29;;;;;;;5.50;3.97;;;;;;;19.98;66.70;100260.66;5050901;28;20023;-43
2022/09/05 00:49:26;;;;;;;6.25;3.85;;;;;;;20.06;66.66;100262.88;5051113;28;20028;-43
2022/09/05 00:52:05;;;;;;;4.60;4.10;;;;;;;20.36;65.94;100256.16;5047208;28;20028;-45
2022/09/05 00:54:49;;;;;;;6.70;4.07;;;;;;;20.13;66.25;100260.00;5050786;28;20029;-43
2022/09/05 00:57:48;;;;;;;6.18;3.90;;;;;;;20.21;66.85;100257.63;5050584;28;20032;-42
2022/09/05 01:00:24;;;;;;;6.00;3.92;;;;;;;20.15;66.24;100258.66;5050756;28;20029;-44
2022/09/05 01:03:11;;;;;;;5.68;4.07;;;;;;;19.99;66.78;100252.28;5050690;28;20135;-43
2022/09/05 01:05:52;;;;;;;9.43;4.00;;;;;;;19.96;66.81;100258.19;5051108;28;20113;-44
2022/09/05 01:08:50;;;;;;;5.32;3.88;;;;;;;20.04;66.98;100252.31;5050506;28;20473;-43
2022/09/05 01:11:40;;;;;;;6.60;3.90;;;;;;;19.61;67.88;100258.53;5050956;28;20021;-43
2022/09/05 01:14:43;;;;;;;5.20;4.25;;;;;;;19.68;68.48;100251.06;5050709;28;20035;-46
2022/09/05 01:17:33;;;;;;;6.18;4.22;;;;;;;19.55;68.42;100257.66;5050277;28;20075;-45
2022/09/05 01:20:24;;;;;;;7.22;4.20;;;;;;;19.62;68.67;100250.19;5049793;28;20032;-43
2022/09/05 01:22:52;;;;;;;5.25;4.10;;;;;;;19.73;68.11;100264.69;5050222;28;20095;-42
2022/09/05 01:25:50;;;;;;;6.50;4.60;;;;;;;19.34;69.83;100264.66;5049992;28;20021;-44
2022/09/05 01:28:34;;;;;;;5.60;4.30;;;;;;;19.54;69.39;100259.53;5045221;28;20124;-43
2022/09/05 01:31:33;;;;;;;8.10;4.60;;;;;;;19.41;69.61;100268.00;5049833;28;20381;-44
2022/09/05 01:34:20;;;;;;;6.05;4.50;;;;;;;19.71;68.43;100250.59;5050620;28;20016;-43
2022/09/05 01:37:16;;;;;;;4.50;4.07;;;;;;;19.81;68.04;100263.41;5050343;28;20059;-43
2022/09/05 01:40:12;;;;;;;7.45;4.25;;;;;;;20.14;67.21;100256.22;5050467;28;20098;-44
2022/09/05 01:42:37;;;;;;;5.28;4.10;;;;;;;20.46;65.93;100251.66;5051233;28;20028;-44
2022/09/05 01:45:17;;;;;;;7.70;3.72;;;;;;;19.89;68.01;100255.66;5050786;28;20025;-43
2022/09/05 01:47:43;;;;;;;;;;;;;;;20.10;67.16;100254.03;5051127;28;20469;-44
2022/09/05 01:50:30;;;;;;;4.88;3.85;;;;;;;19.94;67.68;100254.13;5050271;28;19917;-43
2022/09/05 01:53:24;;;;;;;5.90;3.85;;;;;;;20.18;67.25;100260.88;5051062;28;20154;-44
2022/09/05 01:55:52;;;;;;;5.35;3.85;;;;;;;19.67;68.50;100255.66;5050984;28;20028;-44
2022/09/05 01:58:26;;;;;;;4.63;4.07;;;;;;;19.65;68.90;100260.50;5051034;28;20044;-44
2022/09/05 02:00:52;;;;;;;5.32;4.20;;;;;;;19.65;69.21;100257.81;5050113;28;20484;-47
2022/09/05 02:03:39;;;;;;;7.15;4.10;;;;;;;20.27;66.81;100264.72;5050968;28;20021;-44
2022/09/05 02:06:22;;;;;;;7.05;3.95;;;;;;;20.01;68.01;100263.66;5051049;28;20123;-44
2022/09/05 02:09:11;;;;;;;5.72;4.20;;;;;;;19.99;67.45;100264.97;5050649;28;20035;-44
2022/09/05 02:11:48;;;;;;;5.93;4.32;;;;;;;19.46;69.89;100264.56;5039764;28;20048;-44
2022/09/05 02:14:31;;;;;;;8.63;4.63;;;;;;;19.63;69.78;100262.63;5050477;28;20477;-47
2022/09/05 02:17:15;;;;;;;5.82;4.57;;;;;;;19.99;68.32;100263.09;5050239;28;20067;-45
2022/09/05 02:19:58;;;;;;;6.68;4.60;;;;;;;20.10;67.66;100262.13;5050252;28;20066;-48
2022/09/05 02:22:39;;;;;;;6.85;4.57;;;;;;;19.92;68.66;100267.88;5050345;28;20040;-46
2022/09/05 02:25:29;;;;;;;6.63;4.78;;;;;;;20.31;66.92;100256.91;5050632;28;20032;-45
2022/09/05 02:28:04;;;;;;;6.35;5.13;;;;;;;20.20;67.68;100264.13;5050118;28;20057;-43
2022/09/05 02:30:40;;;;;;;5.40;4.55;;;;;;;19.92;68.40;100257.06;5054625;28;20121;-44
2022/09/05 02:33:24;;;;;;;7.15;4.60;;;;;;;20.23;68.03;100262.78;5053847;28;20036;-44
2022/09/05 02:36:02;;;;;;;9.15;4.93;;;;;;;20.35;67.03;100266.13;5054135;28;20021;-44
2022/09/05 02:39:11;;;;;;;5.93;4.80;;;;;;;20.63;65.95;100264.28;5054427;28;20028;-44
2022/09/05 02:41:52;;;;;;;5.95;4.75;;;;;;;20.30;66.76;100263.41;5054002;28;20025;-43
2022/09/05 02:44:28;;;;;;;6.05;4.70;;;;;;;20.36;67.17;100258.88;5053750;28;20542;-43
2022/09/05 02:47:13;;;;;;;5.07;4.57;;;;;;;20.36;67.26;100266.97;5054272;28;20031;-43
2022/09/05 02:50:06;;;;;;;5.28;4.78;;;;;;;19.97;68.81;100276.03;5053825;28;20029;-43
2022/09/05 02:52:35;;;;;;;9.48;4.50;;;;;;;20.05;69.04;100263.97;5053835;28;20028;-42
2022/09/05 02:55:12;;;;;;;5.15;4.43;;;;;;;19.86;69.39;100268.88;5053451;28;20098;-43
2022/09/05 02:57:42;;;;;;;7.68;4.82;;;;;;;20.13;68.72;100274.31;5053770;28;20051;-42
2022/09/05 03:00:20;;;;;;;7.55;5.00;;;;;;;20.27;67.85;100278.22;5053500;28;20021;-43
2022/09/05 03:02:57;;;;;;;5.63;4.82;;;;;;;20.35;67.95;100262.63;5053761;28;20469;-44
2022/09/05 03:05:29;;;;;;;6.40;4.85;;;;;;;19.97;69.29;100276.03;5053110;28;20067;-43
2022/09/05 03:08:04;;;;;;;7.43;4.78;;;;;;;20.66;66.77;100278.09;5053918;28;20024;-45
2022/09/05 03:11:07;;;;;;;7.47;4.57;;;;;;;20.61;66.76;100269.94;5053601;28;20461;-43
2022/09/05 03:14:29;;;;;;;6.53;4.75;;;;;;;20.81;65.89;100271.16;5053691;28;20049;-43
2022/09/05 03:17:28;;;;;;;8.02;4.72;;;;;;;20.98;65.49;100279.16;5052972;28;20178;-43
2022/09/05 03:20:15;;;;;;;10.98;6.43;;;;;;;20.89;65.43;100282.34;5053534;28;20021;-42
2022/09/05 03:23:11;;;;;;;12.18;7.07;;;;;;;20.87;65.38;100287.19;5053794;28;20029;-42
2022/09/05 03:25:40;;;;;;;10.52;7.18;;;;;;;20.68;66.12;100280.56;5053648;28;20075;-44
2022/09/05 03:28:36;;;;;;;10.60;4.78;;;;;;;20.82;65.43;100286.34;5053265;28;20082;-43
2022/09/05 03:31:35;;;;;;;7.47;4.63;;;;;;;20.89;65.47;100286.94;5053307;28;20393;-43
2022/09/05 03:34:22;;;;;;;7.95;5.07;;;;;;;21.16;63.95;100286.06;5053352;28;20033;-45
2022/09/05 03:37:13;;;;;;;6.25;4.88;;;;;;;21.00;64.30;100290.53;5052764;28;20067;-44
2022/09/05 03:39:51;;;;;;;;;;;;;;;21.21;64.24;100295.03;5052832;28;20408;-43
2022/09/05 03:42:44;;;;;;;9.13;5.18;;;;;;;21.12;63.96;100291.16;5052972;28;19956;-49
2022/09/05 03:45:36;;;;;;;9.60;5.50;;;;;;;21.07;63.75;100289.22;5053012;28;20492;-44
2022/09/05 03:48:11;;;;;;;6.28;5.25;;;;;;;20.80;64.59;100296.59;5052913;28;20162;-44
2022/09/05 03:50:54;;;;;;;11.40;6.43;;;;;;;20.23;66.35;100290.63;5032552;28;20053;-44
2022/09/05 03:53:46;;;;;;;12.27;7.38;;;;;;;20.06;67.69;100296.09;5032715;28;20029;-44
2022/09/05 03:56:20;;;;;;;6.38;5.20;;;;;;;20.21;67.00;100308.16;5032731;28;20076;-45
2022/09/05 03:59:11;;;;;;;5.90;3.97;;;;;;;20.25;67.17;100304.69;5033195;28;20044;-42
2022/09/05 04:01:43;;;;;;;8.48;5.30;;;;;;;20.15;67.00;100315.41;5052280;28;20048;-44
2022/09/05 04:04:34;;;;;;;7.63;5.18;;;;;;;20.30;67.03;100317.47;5052296;28;20032;-46
2022/09/05 04:07:02;;;;;;;;;;;;;;;20.26;66.71;100314.44;5052823;28;20029;-43
2022/09/05 04:09:38;;;;;;;6.80;5.20;;;;;;;20.26;67.21;100311.75;5051829;28;19932;-47
2022/09/05 04:12:26;;;;;;;8.05;5.13;;;;;;;20.93;63.87;100315.09;5052413;28;20021;-45
2022/09/05 04:15:01;;;;;;;7.70;4.93;;;;;;;20.73;64.58;100318.44;5052160;28;20400;-46
2022/09/05 04:17:35;;;;;;;11.77;4.88;;;;;;;20.57;65.10;100328.28;5052518;28;20057;-46
2022/09/05 04:20:03;;;;;;;10.43;5.07;;;;;;;20.49;64.83;100332.25;5051774;28;20033;-45
2022/09/05 04:22:56;;;;;;;8.43;5.07;;;;;;;20.16;66.01;100335.94;5052036;28;20036;-43
2022/09/05 04:25:40;;;;;;;6.95;5.13;;;;;;;20.21;66.41;100330.59;5051121;28;20093;-46
2022/09/05 04:28:37;;;;;;;7.60;5.50;;;;;;;20.36;65.37;100334.53;5032030;28;20036;-45
2022/09/05 04:31:15;;;;;;;10.25;5.95;;;;;;;20.24;65.19;100338.22;5031832;28;20037;-46
2022/09/05 04:33:58;;;;;;;10.07;5.63;;;;;;;20.49;64.38;100348.47;5037541;28;20033;-42
2022/09/05 04:36:32;;;;;;;10.77;6.03;;;;;;;20.31;64.39;100344.25;5035622;28;20030;-44
2022/09/05 04:39:24;;;;;;;6.35;5.20;;;;;;;20.17;65.38;100351.09;5032068;28;20680;-43
2022/09/05 04:42:01;;;;;;;8.95;5.15;;;;;;;20.42;64.75;100350.56;5031523;28;20060;-43
2022/09/05 04:44:45;;;;;;;7.95;4.38;;;;;;;20.22;64.69;100361.97;5031654;28;20108;-43
2022/09/05 04:47:26;;;;;;;7.03;4.40;;;;;;;20.59;63.10;100360.47;5031598;28;20131;-43
2022/09/05 04:50:03;;;;;;;9.57;4.35;;;;;;;20.26;64.33;100364.97;5045494;28;20254;-43
2022/09/05 04:53:03;;;;;;;7.28;4.43;;;;;;;20.41;64.03;100359.75;5050700;28;20048;-46
2022/09/05 04:55:44;;;;;;;6.60;4.13;;;;;;;20.50;62.94;100363.63;5050705;28;20031;-44
2022/09/05 04:58:21;;;;;;;6.07;3.80;;;;;;;20.46;63.13;100353.56;5050703;28;20029;-43
2022/09/05 05:00:56;;;;;;;12.35;7.60;;;;;;;20.72;62.67;100368.19;5050458;28;20029;-42
2022/09/05 05:03:25;;;;;;;6.43;4.00;;;;;;;20.80;61.16;100373.13;5050835;28;20039;-42
2022/09/05 05:05:54;;;;;;;5.88;3.90;;;;;;;20.60;62.01;100375.63;5051349;28;20029;-42
2022/09/05 05:08:34;;;;;;;6.38;3.95;;;;;;;20.58;62.33;100362.34;5051387;28;20059;-44
2022/09/05 05:11:07;;;;;;;8.10;3.73;;;;;;;20.61;62.26;100375.38;5050498;28;20024;-42
2022/09/05 05:13:46;;;;;;;5.85;4.07;;;;;;;20.77;61.21;100378.22;5050430;28;20489;-43
2022/09/05 05:16:16;;;;;;;5.07;3.50;;;;;;;21.33;59.43;100375.22;5051407;28;20035;-45
2022/09/05 05:19:04;;;;;;;11.80;9.07;;;;;;;21.02;60.18;100386.59;5050777;28;20189;-45
2022/09/05 05:21:31;;;;;;;6.30;3.45;;;;;;;21.21;58.60;100378.06;5050653;28;20044;-44
2022/09/05 05:24:08;;;;;;;6.90;3.80;;;;;;;21.15;59.44;100382.66;5050626;28;20056;-44
2022/09/05 05:27:07;;;;;;;7.10;3.70;;;;;;;21.71;57.50;100390.38;5050657;28;20029;-42
2022/09/05 05:29:48;;;;;;;8.10;3.78;;;;;;;21.76;57.43;100386.88;5050544;28;20059;-44
2022/09/05 05:32:27;;;;;;;5.35;3.70;;;;;;;21.53;57.66;100388.09;5050436;28;20029;-44
2022/09/05 05:35:16;;;;;;;5.18;3.53;;;;;;;21.44;58.07;100388.59;5050140;28;20051;-43
2022/09/05 05:37:41;;;;;;;7.43;3.55;;;;;;;21.30;58.73;100384.66;5043133;28;20037;-43
2022/09/05 05:40:20;;;;;;;9.90;4.05;;;;;;;21.56;57.77;100390.28;5050230;28;20029;-44
2022/09/05 05:42:46;;;;;;;4.38;3.53;;;;;;;21.51;57.99;100396.47;5050354;28;20051;-46
2022/09/05 05:45:28;;;;;;;5.50;3.60;;;;;;;21.50;58.04;100385.91;5049967;28;20127;-43
2022/09/05 05:48:24;;;;;;;6.75;3.83;;;;;;;22.01;56.95;100388.94;5049992;28;20024;-42
2022/09/05 05:51:10;;;;;;;6.07;3.67;;;;;;;21.28;58.83;100401.16;5025442;28;20112;-42
2022/09/05 05:53:41;;;;;;;7.65;3.60;;;;;;;21.79;57.12;100405.31;5030471;28;20509;-43
2022/09/05 05:56:43;;;;;;;4.03;3.40;;;;;;;21.34;57.50;100401.19;5030432;28;20049;-44
2022/09/05 05:59:30;;;;;;;6.82;3.67;;;;;;;21.07;57.42;100413.69;5033639;28;20039;-44
2022/09/05 06:02:07;;;;;;;7.00;3.72;;;;;;;21.23;57.42;100408.44;5050066;28;20033;-45
2022/09/05 06:04:51;;;;;;;6.93;3.30;;;;;;;21.61;56.31;100412.81;5052591;28;20057;-44
2022/09/05 06:07:45;;;;;;;4.63;3.03;;;;;;;22.04;54.84;100410.88;5053623;28;20041;-41
2022/09/05 06:10:41;;;;;;;4.53;3.28;;;;;;;22.54;53.45;100413.25;5053588;28;20082;-44
2022/09/05 06:13:30;;;;;;;6.07;3.30;;;;;;;22.87;51.87;100417.41;5053501;28;20473;-43
2022/09/05 06:16:33;;;;;;;4.88;3.30;;;;;;;23.32;51.95;100410.44;5053468;28;20027;-44
2022/09/05 06:19:17;;;;;;;9.32;3.50;;;;;;;23.86;49.72;100411.72;5053242;28;20041;-43
2022/09/05 06:22:20;;;;;;;6.18;4.07;;;;;;;23.62;50.65;100416.91;5053309;28;20120;-44
2022/09/05 06:24:56;;;;;;;5.90;3.80;;;;;;;23.77;50.29;100421.50;5052578;28;20025;-44
2022/09/05 06:27:37;;;;;;;4.72;3.60;;;;;;;23.51;51.01;100418.81;5052811;28;20107;-43
2022/09/05 06:30:14;;;;;;;8.45;3.50;;;;;;;23.64;50.88;100419.34;5052226;28;20025;-43
2022/09/05 06:32:51;;;;;;;5.45;3.90;;;;;;;24.18;48.78;100419.50;5052944;28;20025;-44
2022/09/05 06:35:41;;;;;;;5.20;3.30;;;;;;;23.93;49.30;100417.69;5036297;28;20033;-45
2022/09/05 06:38:38;;;;;;;5.07;3.17;;;;;;;23.67;50.00;100426.97;5053408;28;20111;-35
2022/09/05 06:41:24;;;;;;;6.38;3.50;;;;;;;23.76;49.93;100430.72;5053570;28;20716;-36
2022/09/05 06:44:05;;;;;;;5.22;3.47;;;;;;;24.25;48.66;100427.34;5052702;28;20515;-37
2022/09/05 06:46:40;;;;;;;3.92;3.30;;;;;;;24.18;48.46;100435.03;5052776;28;20032;-37
2022/09/05 06:49:16;;;;;;;5.13;3.17;;;;;;;24.86;47.23;100430.88;5059955;28;20588;-37
2022/09/05 06:51:47;;;;;;;5.38;3.60;;;;;;;25.01;46.15;100436.22;5072678;28;20048;-36
2022/09/05 06:54:25;;;;;;;7.07;3.53;;;;;;;24.30;47.54;100432.78;5051339;28;20536;-37
2022/09/05 06:57:02;;;;;;;5.13;3.45;;;;;;;24.69;47.20;100440.22;5052572;28;20725;-37
2022/09/05 06:59:33;;;;;;;5.00;3.38;;;;;;;24.71;46.56;100440.78;5038926;28;20139;-37
2022/09/05 07:02:11;;;;;;;7.72;3.60;;;;;;;25.41;45.82;100437.03;5052320;28;20036;-37
2022/09/05 07:04:49;;;;;;;3.67;3.17;;;;;;;25.77;44.02;100435.91;5052382;28;20037;-36
2022/09/05 07:07:34;;;;;;;6.15;3.30;;;;;;;26.20;44.61;100446.88;5052117;28;20029;-38
2022/09/05 07:10:05;;;;;;;6.30;3.30;;;;;;;26.62;42.28;100448.84;5052141;28;20029;-38
2022/09/05 07:12:48;;;;;;;5.00;3.40;;;;;;;26.58;42.23;100444.22;5052647;28;20460;-36
2022/09/05 07:15:24;;;;;;;5.10;3.38;;;;;;;26.78;42.42;100445.91;5052142;28;20032;-36
2022/09/05 07:18:12;;;;;;;6.43;3.05;;;;;;;26.90;41.60;100443.53;5052841;28;20057;-37
2022/09/05 07:20:53;;;;;;;3.88;3.08;;;;;;;27.35;41.15;100446.69;5052426;28;20104;-36
2022/09/05 07:23:41;;;;;;;4.78;3.22;;;;;;;26.96;41.30;100449.72;5044537;28;20409;-37
2022/09/05 07:26:09;;;;;;;4.90;3.25;;;;;;;26.86;42.01;100446.03;5032767;28;20029;-38
2022/09/05 07:28:40;;;;;;;4.30;3.40;;;;;;;26.92;41.33;100442.16;5040408;28;20421;-45
2022/09/05 07:31:15;;;;;;;5.15;3.10;;;;;;;27.50;40.72;100449.16;5072689;28;20137;-45
2022/09/05 07:33:44;;;;;;;6.25;3.45;;;;;;;27.78;40.46;100443.75;5072188;28;20024;-43
2022/09/05 07:36:31;;;;;;;;;;;;;;;27.93;39.45;100450.88;5065529;28;20114;-37
2022/09/05 07:39:00;;;;;;;4.25;3.20;;;;;;;27.88;39.33;100440.84;5058657;28;19913;-37
2022/09/05 07:41:28;;;;;;;;;;;;;;;28.50;38.28;100438.78;5033472;28;20092;-37
2022/09/05 07:44:03;;;;;;;3.72;2.85;;;;;;;28.88;37.17;100444.00;5030811;28;20322;-36
2022/09/05 07:46:40;;;;;;;3.45;2.60;;;;;;;28.16;37.80;100437.28;5031402;28;20452;-38
2022/09/05 07:49:13;;;;;;;3.28;2.60;;;;;;;29.06;35.63;100440.28;5038852;28;20025;-37
2022/09/05 07:51:55;;;;;;;5.80;2.60;;;;;;;29.66;36.04;100439.06;5051721;28;20037;-37
2022/09/05 07:54:31;;;;;;;5.00;2.40;;;;;;;30.31;34.74;100437.56;5050944;28;20025;-37
2022/09/05 07:57:03;;;;;;;5.80;2.88;;;;;;;31.19;33.77;100427.47;5051799;28;20040;-37
2022/09/05 07:59:34;;;;;;;4.55;2.67;;;;;;;31.49;32.61;100433.09;5051901;28;20104;-37
2022/09/05 08:02:00;;;;;;;4.50;2.83;;;;;;;31.96;31.22;100422.84;5051709;28;20033;-37
2022/09/05 08:04:32;;;;;;;3.47;2.78;;;;;;;32.00;30.71;100428.50;5051307;28;20032;-37
2022/09/05 08:07:01;;;;;;;4.65;2.90;;;;;;;32.17;31.85;100424.88;5051785;28;20031;-37
2022/09/05 08:09:26;;;;;;;;;;;;;;;31.31;33.85;100424.06;5052250;28;20473;-37
2022/09/05 08:11:56;;;;;;;5.80;3.00;;;;;;;31.51;33.25;100423.38;5051910;28;19952;-37
2022/09/05 08:14:41;;;;;;;4.95;2.85;;;;;;;31.00;33.27;100414.06;5051656;28;20110;-37
2022/09/05 08:17:12;;;;;;;4.75;2.92;;;;;;;31.20;32.53;100415.31;5051695;28;20045;-37
2022/09/05 08:20:13;;;;;;;4.65;2.97;;;;;;;31.20;32.88;100415.31;5051844;28;20112;-35
2022/09/05 08:22:56;;;;;;;5.22;3.17;;;;;;;31.15;33.30;100421.03;5049933;28;20158;-42
2022/09/05 08:25:50;;;;;;;4.95;3.67;;;;;;;31.61;32.61;100413.16;5051054;28;20028;-43
2022/09/05 08:28:23;;;;;;;7.60;3.78;;;;;;;31.66;31.94;100412.97;5050834;28;20045;-45
2022/09/05 08:31:02;;;;;;;5.95;3.17;;;;;;;31.76;31.95;100407.13;5057891;28;20034;-47
2022/09/05 08:33:33;;;;;;;5.30;3.38;;;;;;;31.83;31.58;100401.09;5071282;28;20115;-47
2022/09/05 08:36:20;;;;;;;10.40;3.58;;;;;;;31.90;31.80;100412.38;5070917;28;20017;-45
2022/09/05 08:38:46;;;;;;;4.97;3.45;;;;;;;32.21;31.35;100405.75;5070541;28;20065;-44
2022/09/05 08:41:42;;;;;;;6.25;3.60;;;;;;;31.35;32.41;100412.06;5069912;28;20024;-44
2022/09/05 08:44:16;;;;;;;4.80;3.40;;;;;;;31.38;32.10;100402.38;5070163;28;20494;-45
2022/09/05 08:46:50;;;;;;;8.63;3.90;;;;;;;31.29;32.57;100399.63;5069826;28;20032;-44
2022/09/05 08:49:34;;;;;;;5.93;3.60;;;;;;;31.25;32.26;100400.63;5070207;28;20020;-47
2022/09/05 08:52:13;;;;;;;6.80;3.65;;;;;;;31.71;31.33;100396.28;5070151;28;20108;-44
2022/09/05 08:55:10;;;;;;;5.90;3.43;;;;;;;32.14;31.42;100398.06;5070729;28;20028;-43
2022/09/05 08:57:57;;;;;;;4.55;3.40;;;;;;;32.57;30.15;100394.19;5070741;28;20046;-43
2022/09/05 09:00:24;;;;;;;9.05;3.65;;;;;;;32.10;30.81;100392.41;5056119;28;20033;-44
2022/09/05 09:02:55;;;;;;;4.70;3.40;;;;;;;32.22;30.73;100386.16;5050820;28;20104;-43
2022/09/05 09:05:42;;;;;;;6.30;3.97;;;;;;;31.70;32.65;100389.16;5050899;28;20079;-43
2022/09/05 09:08:53;;;;;;;7.72;3.70;;;;;;;31.74;32.13;100387.38;5050322;28;20100;-43
2022/09/05 09:11:29;;;;;;;4.53;3.80;;;;;;;31.89;32.58;100386.81;5008231;28;20029;-44
2022/09/05 09:14:14;;;;;;;5.63;3.67;;;;;;;31.23;32.58;100384.44;5047844;28;20020;-47
2022/09/05 09:16:49;;;;;;;6.88;3.90;;;;;;;31.58;32.34;100384.38;5050408;28;20090;-44
2022/09/05 09:19:20;;;;;;;7.10;5.95;;;;;;;31.72;32.60;100384.13;5049878;28;20023;-44
2022/09/05 09:21:59;;;;;;;5.80;4.25;;;;;;;31.41;32.49;100384.41;5049662;28;20111;-44
2022/09/05 09:25:02;;;;;;;5.55;3.83;;;;;;;31.31;32.47;100374.56;5050041;28;20025;-44
2022/09/05 09:27:28;;;;;;;4.10;3.40;;;;;;;31.18;32.55;100388.16;5049927;28;20032;-45
2022/09/05 09:30:02;;;;;;;4.75;3.92;;;;;;;31.48;32.47;100382.78;5049062;28;20025;-43
2022/09/05 09:32:29;;;;;;;3.78;3.47;;;;;;;31.78;31.68;100380.09;5049921;28;20028;-44
2022/09/05 09:35:26;;;;;;;5.25;3.92;;;;;;;31.56;32.15;100384.69;5050193;28;20025;-44
2022/09/05 09:38:07;;;;;;;5.72;4.10;;;;;;;31.31;32.19;100358.06;5048472;28;20378;-44
2022/09/05 09:41:04;;;;;;;4.60;3.70;;;;;;;31.68;31.38;100385.94;5049759;28;20126;-46
2022/09/05 09:44:05;;;;;;;3.78;3.38;;;;;;;31.80;31.13;100385.25;5048967;28;20051;-46
2022/09/05 09:46:42;;;;;;;4.10;3.63;;;;;;;31.66;31.07;100391.78;5049441;28;20032;-45
2022/09/05 09:49:19;;;;;;;6.20;3.55;;;;;;;31.64;30.62;100382.25;5057369;28;20024;-45
2022/09/05 09:52:13;;;;;;;4.05;3.30;;;;;;;31.86;30.13;100375.66;5069216;28;20024;-45
2022/09/05 09:55:06;;;;;;;6.28;3.47;;;;;;;31.95;29.96;100377.22;5069677;28;20032;-46
2022/09/05 09:57:57;;;;;;;5.38;3.45;;;;;;;31.53;30.21;100379.06;5069972;28;20515;-43
2022/09/05 10:00:24;;;;;;;3.42;3.13;;;;;;;31.71;30.57;100366.81;5055431;28;20064;-46
2022/09/05 10:03:25;;;;;;;4.22;3.03;;;;;;;32.30;29.79;100367.97;5049599;28;20075;-44
2022/09/05 10:06:12;;;;;;;4.80;2.97;;;;;;;32.64;28.96;100377.94;5049602;28;20024;-44
2022/09/05 10:09:26;;;;;;;4.10;3.10;;;;;;;33.25;27.89;100376.56;5049424;28;20063;-45
2022/09/05 10:12:30;;;;;;;4.00;3.10;;;;;;;33.09;28.37;100379.97;5048869;28;20059;-45
2022/09/05 10:15:02;;;;;;;5.22;3.33;;;;;;;32.74;28.07;100371.22;5028335;28;20048;-46
2022/09/05 10:17:42;;;;;;;4.25;2.92;;;;;;;33.09;28.25;100376.38;5049601;28;20057;-45
2022/09/05 10:20:26;;;;;;;3.42;2.80;;;;;;;33.03;27.88;100356.47;5049725;28;20029;-47
2022/09/05 10:22:54;;;;;;;4.90;3.00;;;;;;;32.83;27.36;100371.94;5049446;28;20033;-46
2022/09/05 10:25:26;;;;;;;6.65;3.13;;;;;;;32.68;27.59;100372.56;5049511;28;20028;-47
2022/09/05 10:28:18;;;;;;;3.45;2.97;;;;;;;32.12;27.88;100364.53;5049775;28;20425;-46
2022/09/05 10:31:01;;;;;;;4.22;3.03;;;;;;;31.44;29.02;100365.31;5042054;28;20037;-46
2022/09/05 10:33:37;;;;;;;5.75;3.10;;;;;;;30.91;30.27;100367.38;5049757;28;20025;-42
2022/09/05 10:36:20;;;;;;;4.55;3.10;;;;;;;31.28;29.67;100355.97;5050218;28;20055;-46
2022/09/05 10:38:59;;;;;;;4.85;3.00;;;;;;;31.33;29.94;100364.84;5049956;28;20077;-45
2022/09/05 10:41:38;;;;;;;5.95;2.92;;;;;;;31.44;28.71;100361.75;5049711;28;20430;-47
2022/09/05 10:44:06;;;;;;;3.63;2.90;;;;;;;31.71;28.47;100353.06;5049214;28;20507;-44
2022/09/05 10:46:51;;;;;;;3.33;3.00;;;;;;;32.17;29.07;100347.81;5048677;28;20767;-43
2022/09/05 10:49:23;;;;;;;5.90;2.80;;;;;;;32.29;28.74;100347.06;5058612;28;20051;-44
2022/09/05 10:52:00;;;;;;;3.10;2.70;;;;;;;32.76;27.50;100338.59;5073719;28;20063;-45
2022/09/05 10:55:07;;;;;;;2.95;2.65;;;;;;;33.09;27.08;100338.59;5072972;28;20396;-45
2022/09/05 10:57:58;;;;;;;4.30;2.50;;;;;;;32.97;26.60;100338.56;5059208;28;20041;-44
2022/09/05 11:00:48;;;;;;;3.17;2.63;;;;;;;31.81;27.64;100337.34;5058601;28;20075;-44
2022/09/05 11:03:18;;;;;;;;;;;;;;;31.65;27.49;100331.59;5053289;28;20447;-43
2022/09/05 11:05:54;;;;;;;3.60;2.70;;;;;;;31.70;28.73;100329.47;5052449;28;19909;-44
2022/09/05 11:09:04;;;;;;;3.70;2.83;;;;;;;31.26;28.87;100323.31;5052816;28;20037;-43
2022/09/05 11:11:45;;;;;;;5.55;2.80;;;;;;;31.60;28.63;100318.03;5033043;28;20032;-44
2022/09/05 11:14:34;;;;;;;4.05;2.75;;;;;;;31.71;28.72;100319.28;5052507;28;20107;-43
2022/09/05 11:17:22;;;;;;;3.97;2.58;;;;;;;31.47;28.71;100308.88;5052407;28;20048;-46
2022/09/05 11:20:16;;;;;;;3.95;2.35;;;;;;;31.17;28.71;100308.81;5045879;28;20075;-45
2022/09/05 11:22:46;;;;;;;3.97;2.70;;;;;;;31.48;28.30;100308.53;5047898;28;20128;-43
2022/09/05 11:25:22;;;;;;;3.50;2.50;;;;;;;31.53;28.66;100299.31;5052678;28;20457;-43
2022/09/05 11:27:50;;;;;;;3.67;2.45;;;;;;;32.66;27.15;100298.53;5050705;28;20108;-44
2022/09/05 11:30:21;;;;;;;4.15;2.45;;;;;;;33.40;26.59;100287.66;5052777;28;20028;-44
2022/09/05 11:33:05;;;;;;;4.32;2.30;;;;;;;33.88;25.70;100285.22;5052373;28;20025;-43
2022/09/05 11:35:52;;;;;;;3.35;2.30;;;;;;;33.84;25.58;100279.59;5052471;28;20037;-43
2022/09/05 11:38:40;;;;;;;4.07;2.85;;;;;;;32.74;26.20;100285.81;5052386;28;20112;-44
2022/09/05 11:41:40;;;;;;;3.47;2.53;;;;;;;32.51;26.50;100274.34;5041130;28;20503;-46
2022/09/05 11:44:08;;;;;;;2.65;2.45;;;;;;;31.67;27.36;100271.56;5052884;28;20112;-44
2022/09/05 11:46:54;;;;;;;5.05;2.90;;;;;;;31.47;27.72;100276.69;5052657;28;20024;-46
2022/09/05 11:49:42;;;;;;;4.45;2.30;;;;;;;32.00;27.12;100268.91;5061446;28;20029;-46
2022/09/05 11:52:32;;;;;;;3.72;2.42;;;;;;;31.71;27.80;100273.31;5072072;28;20035;-43
2022/09/05 11:55:35;;;;;;;4.18;2.30;;;;;;;32.56;27.53;100270.56;5072081;28;20104;-44
2022/09/05 11:58:19;;;;;;;8.27;2.40;;;;;;;33.28;26.37;100260.06;5072103;28;20077;-45
2022/09/05 12:01:09;;;;;;;3.88;2.55;;;;;;;32.45;26.67;100267.44;5071988;28;20056;-43
2022/09/05 12:03:37;;;;;;;;;;;;;;;32.57;26.42;100269.44;5072633;28;20085;-45
2022/09/05 12:06:12;;;;;;;3.95;2.50;;;;;;;31.95;27.46;100266.38;5071734;28;19912;-44
2022/09/05 12:08:53;;;;;;;3.17;2.40;;;;;;;31.96;27.41;100257.75;5071603;28;20032;-45
2022/09/05 12:11:27;;;;;;;2.55;2.35;;;;;;;32.37;26.37;100254.53;5071955;28;20024;-45
2022/09/05 12:14:15;;;;;;;3.25;2.55;;;;;;;31.67;27.16;100255.88;5071702;28;20113;-45
2022/09/05 12:16:49;;;;;;;5.05;2.60;;;;;;;32.04;27.12;100244.31;5071638;28;20043;-45
2022/09/05 12:19:25;;;;;;;3.75;2.70;;;;;;;31.96;27.14;100243.19;5071526;28;20457;-44
2022/09/05 12:22:25;;;;;;;3.78;2.50;;;;;;;32.02;26.91;100244.63;5068870;28;20134;-44
2022/09/05 12:25:23;;;;;;;3.72;2.40;;;;;;;32.54;26.86;100248.88;5051567;28;20032;-43
2022/09/05 12:28:06;;;;;;;4.55;2.60;;;;;;;32.88;27.28;100236.72;5051383;28;20028;-42
2022/09/05 12:30:36;;;;;;;3.17;2.50;;;;;;;33.18;26.52;100230.19;5051302;28;20063;-41
2022/09/05 12:33:11;;;;;;;2.63;2.40;;;;;;;33.44;25.99;100219.63;5050794;28;20107;-44
2022/09/05 12:35:47;;;;;;;3.05;2.40;;;;;;;32.88;27.21;100227.63;5035558;28;20947;-45